CheckWX is a tool to help pilots better visualize weather data.  It is not intended as a substitute for an official pre-flight weather briefing.

02:09:01 UTC

PADQ TAF
Kodiak Airport
Kodiak, Alaska, USA
PADQ 222321Z 2300/2324 27012G19KT P6SM VCSH SCT025 BKN050 FM230600 27011KT P6SM SCT025 BKN050

Apr-23@
00:00 UTC

Apr-23 @ 00:00 UTC

Apr-23@
06:00 UTC

Apr-23 @ 06:00 UTC

PADQ 222321Z 2300/2324 27012G19KT P6SM VCSH SCT025 BKN050
Wind
  • 270° at 12 KTS
  • {Gusting to 19 KTS
Cloud Levels
  • Scattered at 2,500' AGL
  • Broken at 5,000' AGL

Apr-23@
06:00 UTC

Apr-23 @ 06:00 UTC

Apr-24@
00:00 UTC

Apr-24 @ 00:00 UTC

FM230600 27011KT P6SM SCT025 BKN050

From

From Standard forecast or significant change

Wind
  • 270° at 11 KTS
Cloud Levels
  • Scattered at 2,500' AGL
  • Broken at 5,000' AGL